This is the latest recevied weather packets stored in our database for station/object MKSRDG. If no packets are shown the sender has not sent any weather packets the latest 1 day(s).
| Time | Temp. | Humidity | Pressure | Rain* | Wind** | Luminosity | Snow |
|---|---|---|---|---|---|---|---|
| 1778018086 | 14.44° C | 84% | 1015.2 hPa | 0 mm | 1.79 m/s, 350° | 346 W/m² | - |
| 1778017186 | 13.89° C | 84% | 1015.2 hPa | 0 mm | 1.79 m/s, 27° | 315 W/m² | - |
| 1778016286 | 13.89° C | 85% | 1015.3 hPa | 0 mm | 2.24 m/s, 350° | 325 W/m² | - |
| 1778015386 | 13.33° C | 84% | 1015.3 hPa | 0 mm | 2.24 m/s, 9° | 297 W/m² | - |
| 1778014486 | 13.89° C | 86% | 1015.3 hPa | 0 mm | 1.79 m/s, 324° | 348 W/m² | - |
| 1778013586 | 13.89° C | 85% | 1015.3 hPa | 0 mm | 2.24 m/s, 344° | 381 W/m² | - |
| 1778012686 | 13.89° C | 84% | 1015.4 hPa | 0 mm | 1.79 m/s, 297° | 438 W/m² | - |
| 1778011786 | 13.89° C | 84% | 1015.4 hPa | 0 mm | 1.34 m/s, 346° | 418 W/m² | - |
| 1778010886 | 13.33° C | 83% | 1015.4 hPa | 0 mm | 0.89 m/s, 314° | 408 W/m² | - |
| 1778009986 | 13.33° C | 87% | 1015.5 hPa | 0 mm | 0.89 m/s, 292° | 408 W/m² | - |
| 1778009086 | 12.78° C | 90% | 1015.6 hPa | 0 mm | 1.34 m/s, 350° | 341 W/m² | - |
| 1778008186 | 12.22° C | 89% | 1015.6 hPa | 0 mm | 1.34 m/s, 314° | 334 W/m² | - |
| 1778007286 | 12.22° C | 91% | 1015.6 hPa | 0 mm | 0.89 m/s, 351° | 329 W/m² | - |
| 1778006386 | 11.67° C | 92% | 1015.5 hPa | 0 mm | 0.89 m/s, 345° | 292 W/m² | - |
| 1778005486 | 11.11° C | 93% | 1015.5 hPa | 0.25 mm | 1.34 m/s, 342° | 206 W/m² | - |
| 1778004586 | 11.11° C | 93% | 1015.3 hPa | 0.25 mm | 0.89 m/s, 332° | 183 W/m² | - |
| 1778003686 | 11.11° C | 94% | 1015.4 hPa | 0.25 mm | 0.45 m/s, 339° | 174 W/m² | - |
| 1778002786 | 11.11° C | 94% | 1015.4 hPa | 0.25 mm | 0.45 m/s, 25° | 141 W/m² | - |
| 1778001886 | 10.56° C | 94% | 1015.2 hPa | 0 mm | 0 m/s | 236 W/m² | - |
| 1778000986 | 10.56° C | 95% | 1015.2 hPa | 0 mm | 0.45 m/s, 341° | 162 W/m² | - |
| 1778000086 | 10° C | 95% | 1015.2 hPa | 0 mm | 0.45 m/s, 340° | 132 W/m² | - |
| 1777999186 | 10° C | 95% | 1015.2 hPa | 0 mm | 0 m/s | 98 W/m² | - |
| 1777998286 | 10° C | 95% | 1015.2 hPa | 0 mm | 0.45 m/s, 252° | 102 W/m² | - |
| 1777997386 | 10° C | 96% | 1015.2 hPa | 0 mm | 0.45 m/s, 350° | 105 W/m² | - |
| 1777996486 | 10° C | 96% | 1015.1 hPa | 0 mm | 0.45 m/s, 319° | 95 W/m² | - |
* Rain latest hour (hover to see other rain measurements)
** Current wind speed in m/s (hover to see current wind gust speed)